Sint-Truiden, Belgium
Current Conditions -  °F | °C
As of 5:25 AM on Sunday 26 Oct 2014 (Local Time) from EBDT Reporting Station
Overcast Overcast  
Wind Chill: 52°   Ceiling: 3800
Heat Index: 52°   Visibility: 6mi
Dew Point: 48°   Wind: 3mph
Humidity: 88%   Direction: 210°SSW
Pressure: 30.24"   Gusts: NA
Location:  50.82°N, 5.19°E
Report Text: EBDT 260325Z AUTO 21003KT 9999 OVC038/// 11/09 Q1024 BLU
Loading
Personal Weather Stations






























Interactive Weather Map
Tropical Storm Tracking
New forecast layout! Learn more

10-Day Weather Forecast

Advertisements
Track Severe Weather on mobile